TW-0018 weather

Nan-Gang Police District Helipad
Taipei, Taipei (municipality), Taiwan

Public forecast

Using degrees Celsius for public forecast. Weather courtesy of forecast.io.

METAR (pilot weather report)

Closest report is Taipei Songshan Airport, 2.5 nm (4.6 km) WNW. Retrieved 2019/09/20 17:00 UTC (5 minutes ago):

RCSS 201700Z 21007KT 190V260 3500 RA FEW005 BKN012 BKN030 21/20 Q1004 NOSIG RMK 28008KT/R10 A2967 RA AMT 2.6MM

TAF (pilot weather forecast)

Closest forecast is Taipei Songshan Airport, 2.5 nm (4.6 km) WNW. Retrieved 2019/09/20 12:00 UTC (5 hours ago):

TAF RCSS 201100Z 2012/2112 30005KT 8000 FEW016 BKN032 TEMPO 2012/2018 25007KT 4000 RA FEW008 BKN018 TEMPO 2018/2024 5000 RA FEW007 BKN017 TEMPO 2100/2106 27010KT 4000 RA FEW008 BKN018 TEMPO 2106/2112 26008KT FEW012 BKN022